createdAt,value
2023-02-18T00:00:58.534Z,23.3
2023-02-18T00:06:17.308Z,23.3
2023-02-18T00:11:35.835Z,23.3
2023-02-18T00:16:53.792Z,23.3
2023-02-18T00:22:12.268Z,23.3
2023-02-18T00:27:30.793Z,23.3
2023-02-18T00:32:49.280Z,23.4
2023-02-18T00:38:07.477Z,23.3
2023-02-18T00:43:25.731Z,23.4
2023-02-18T00:48:44.641Z,23.4
2023-02-18T00:54:03.147Z,23.4
2023-02-18T00:59:21.676Z,23.4
2023-02-18T01:04:39.931Z,23.4
2023-02-18T01:09:58.182Z,23.4
2023-02-18T01:15:16.732Z,23.4
2023-02-18T01:20:34.907Z,23.4
2023-02-18T01:25:53.161Z,23.4
2023-02-18T01:31:12.215Z,23.4
2023-02-18T01:36:31.055Z,23.4
2023-02-18T01:41:49.816Z,23.4
2023-02-18T01:47:08.623Z,23.4
2023-02-18T01:52:26.852Z,23.4
2023-02-18T01:57:45.033Z,23.4
2023-02-18T02:02:47.768Z,23.4
2023-02-18T02:08:06.065Z,23.4
2023-02-18T02:13:24.852Z,23.4
2023-02-18T02:18:43.391Z,23.4
2023-02-18T02:24:01.304Z,23.4
2023-02-18T02:29:19.771Z,23.4
2023-02-18T02:34:38.303Z,23.4
2023-02-18T02:39:57.049Z,23.4
2023-02-18T02:45:15.268Z,23.4
2023-02-18T02:50:33.511Z,23.4
2023-02-18T02:55:51.965Z,23.4
2023-02-18T03:01:10.295Z,23.4
2023-02-18T03:06:28.578Z,23.4
2023-02-18T03:11:46.825Z,23.4
2023-02-18T03:17:05.036Z,23.4
2023-02-18T03:22:23.050Z,23.4
2023-02-18T03:27:41.269Z,23.4
2023-02-18T03:32:59.789Z,23.4
2023-02-18T03:38:18.039Z,23.4
2023-02-18T03:43:36.515Z,23.4
2023-02-18T03:48:55.011Z,23.4
2023-02-18T03:54:13.550Z,23.4
2023-02-18T03:59:32.061Z,23.4
2023-02-18T04:04:50.555Z,23.4
2023-02-18T04:10:08.810Z,23.4
2023-02-18T04:15:27.310Z,23.4
2023-02-18T04:20:45.526Z,23.4
2023-02-18T04:26:03.817Z,23.4
2023-02-18T04:31:22.718Z,23.4
2023-02-18T04:36:41.123Z,23.4
2023-02-18T04:41:59.925Z,23.4
2023-02-18T04:47:18.145Z,23.4
2023-02-18T04:52:36.669Z,23.4
2023-02-18T04:57:55.470Z,23.4
2023-02-18T05:03:14.240Z,23.4
2023-02-18T05:08:32.724Z,23.4
2023-02-18T05:13:51.242Z,23.4
2023-02-18T05:19:09.726Z,23.4
2023-02-18T05:24:28.235Z,23.4
2023-02-18T05:29:46.832Z,23.4
2023-02-18T05:35:05.385Z,23.4
2023-02-18T05:40:23.605Z,23.4
2023-02-18T05:45:41.841Z,23.4
2023-02-18T05:51:00.742Z,23.4
2023-02-18T05:56:19.229Z,23.4
2023-02-18T06:01:37.582Z,23.4
2023-02-18T06:06:55.488Z,23.4
2023-02-18T06:12:13.973Z,23.4
2023-02-18T06:17:31.918Z,23.4
2023-02-18T06:22:50.407Z,23.4
2023-02-18T06:28:08.888Z,23.4
2023-02-18T06:33:27.520Z,23.4
2023-02-18T06:38:45.495Z,23.4
2023-02-18T06:44:03.682Z,23.4
2023-02-18T06:49:22.262Z,23.4
2023-02-18T06:54:41.487Z,23.5
2023-02-18T06:59:59.979Z,23.5
2023-02-18T07:05:18.568Z,23.5
2023-02-18T07:10:37.236Z,23.5
2023-02-18T07:15:56.026Z,23.5
2023-02-18T07:21:14.845Z,23.5
2023-02-18T07:26:33.028Z,23.5
2023-02-18T07:31:51.906Z,23.5
2023-02-18T07:37:10.595Z,23.5
2023-02-18T07:42:29.352Z,23.5
2023-02-18T07:47:47.843Z,23.5
2023-02-18T07:53:06.997Z,23.5
2023-02-18T07:58:25.178Z,23.5
2023-02-18T08:03:43.673Z,23.5
2023-02-18T08:09:01.895Z,23.6
2023-02-18T08:14:20.756Z,23.6
2023-02-18T08:19:39.280Z,23.6
2023-02-18T08:24:57.809Z,23.7
2023-02-18T08:30:15.841Z,23.7
2023-02-18T08:35:34.713Z,23.7
2023-02-18T08:40:53.480Z,23.7
2023-02-18T08:46:25.102Z,23.7
2023-02-18T08:51:54.357Z,23.7
2023-02-18T08:57:12.846Z,23.7
2023-02-18T09:02:31.325Z,23.7
2023-02-18T09:07:50.242Z,23.8
2023-02-18T09:13:09.249Z,23.8
2023-02-18T09:18:27.730Z,23.7
2023-02-18T09:23:46.218Z,23.7
2023-02-18T09:29:05.224Z,23.8
2023-02-18T09:34:23.900Z,23.8
2023-02-18T09:39:42.393Z,23.8
2023-02-18T09:45:00.466Z,23.8
2023-02-18T09:50:19.538Z,23.9
2023-02-18T09:55:37.728Z,23.9
2023-02-18T10:00:56.535Z,23.9
2023-02-18T10:06:15.074Z,23.9
2023-02-18T10:11:32.988Z,23.9
2023-02-18T10:16:51.282Z,23.9
2023-02-18T10:22:09.483Z,24
2023-02-18T10:27:28.030Z,24
2023-02-18T10:32:46.529Z,24.1
2023-02-18T10:37:49.416Z,24.1
2023-02-18T10:43:08.170Z,24.1
2023-02-18T10:48:26.410Z,24.1
2023-02-18T10:53:45.197Z,24.1
2023-02-18T10:59:03.697Z,24.1
2023-02-18T11:04:06.611Z,24.1
2023-02-18T11:09:24.573Z,24.1
2023-02-18T11:14:43.049Z,24.2
2023-02-18T11:20:01.571Z,24.2
2023-02-18T11:25:19.841Z,24.2
2023-02-18T11:30:38.471Z,24.2
2023-02-18T11:35:56.831Z,24.2
2023-02-18T11:41:15.041Z,24.2
2023-02-18T11:46:33.519Z,24.2
2023-02-18T11:51:52.031Z,24.2
2023-02-18T11:57:10.405Z,24.2
2023-02-18T12:02:28.870Z,24.2
2023-02-18T12:07:31.618Z,24.2
2023-02-18T12:12:50.001Z,24.2
2023-02-18T12:18:08.214Z,24.2
2023-02-18T12:23:26.469Z,24.2
2023-02-18T12:28:44.950Z,24.1
2023-02-18T12:34:03.444Z,24.1
2023-02-18T12:39:21.480Z,24.1
2023-02-18T12:44:39.983Z,24
2023-02-18T12:49:58.646Z,24
2023-02-18T12:55:16.892Z,24
2023-02-18T13:00:35.349Z,24
2023-02-18T13:05:53.845Z,24
2023-02-18T13:11:12.448Z,24
2023-02-18T13:16:31.474Z,24
2023-02-18T13:21:49.995Z,24
2023-02-18T13:27:08.317Z,24
2023-02-18T13:32:27.123Z,24
2023-02-18T13:37:45.634Z,24
2023-02-18T13:43:04.193Z,24
2023-02-18T13:48:22.715Z,24
2023-02-18T13:53:41.628Z,24
2023-02-18T13:59:00.187Z,23.9
2023-02-18T14:04:18.424Z,23.9
2023-02-18T14:09:37.180Z,23.9
2023-02-18T14:14:55.636Z,23.9
2023-02-18T14:20:13.863Z,23.9
2023-02-18T14:25:32.411Z,23.9
2023-02-18T14:30:51.423Z,23.9
2023-02-18T14:36:09.949Z,23.9
2023-02-18T14:41:28.126Z,23.9
2023-02-18T14:46:46.669Z,23.9
2023-02-18T14:52:05.132Z,23.8
2023-02-18T14:57:23.616Z,23.8
2023-02-18T15:02:42.155Z,23.8
2023-02-18T15:08:01.216Z,23.8
2023-02-18T15:13:19.414Z,23.8
2023-02-18T15:18:38.250Z,23.8
2023-02-18T15:23:56.424Z,23.7
2023-02-18T15:29:15.470Z,23.7
2023-02-18T15:34:33.661Z,23.7
2023-02-18T15:39:52.017Z,23.7
2023-02-18T15:45:10.487Z,23.7
2023-02-18T15:50:29.111Z,23.7
2023-02-18T15:55:47.570Z,23.6
2023-02-18T16:01:06.198Z,23.6
2023-02-18T16:06:24.672Z,23.6
2023-02-18T16:11:43.469Z,23.6
2023-02-18T16:17:01.948Z,23.6
2023-02-18T16:22:20.317Z,23.6
2023-02-18T16:27:38.501Z,23.6
2023-02-18T16:32:57.441Z,23.6
2023-02-18T16:38:16.384Z,23.6
2023-02-18T16:43:34.721Z,23.6
2023-02-18T16:48:53.199Z,23.6
2023-02-18T16:54:11.421Z,23.6
2023-02-18T16:59:30.209Z,23.6
2023-02-18T17:04:48.735Z,23.5
2023-02-18T17:10:07.091Z,23.5
2023-02-18T17:15:25.054Z,23.5
2023-02-18T17:20:44.439Z,23.5
2023-02-18T17:26:03.737Z,23.5
2023-02-18T17:31:22.359Z,23.5
2023-02-18T17:36:40.806Z,23.5
2023-02-18T17:41:59.017Z,23.4
2023-02-18T17:47:17.798Z,23.4
2023-02-18T17:52:36.537Z,23.4
2023-02-18T17:57:55.206Z,23.4
2023-02-18T18:03:13.815Z,23.4
2023-02-18T18:08:32.569Z,23.4
2023-02-18T18:13:51.071Z,23.4
2023-02-18T18:19:09.529Z,23.4
2023-02-18T18:24:27.716Z,23.4
2023-02-18T18:29:46.449Z,23.4
2023-02-18T18:35:04.369Z,23.5
2023-02-18T18:40:22.591Z,23.5
2023-02-18T18:45:41.084Z,23.4
2023-02-18T18:50:59.286Z,23.4
2023-02-18T18:56:24.205Z,23.4
2023-02-18T19:01:43.380Z,23.4
2023-02-18T19:07:02.312Z,23.4
2023-02-18T19:12:26.618Z,23.4
2023-02-18T19:17:45.485Z,23.4
2023-02-18T19:23:03.760Z,23.4
2023-02-18T19:28:22.258Z,23.4
2023-02-18T19:33:40.827Z,23.4
2023-02-18T19:38:43.406Z,23.4
2023-02-18T19:44:01.876Z,23.4
2023-02-18T19:49:20.628Z,23.4
2023-02-18T19:54:39.125Z,23.4
2023-02-18T19:59:57.377Z,23.4
2023-02-18T20:05:15.906Z,23.4
2023-02-18T20:10:34.657Z,23.4
2023-02-18T20:15:52.895Z,23.4
2023-02-18T20:21:12.241Z,23.4
2023-02-18T20:26:30.422Z,23.4
2023-02-18T20:31:48.531Z,23.4
2023-02-18T20:37:07.019Z,23.4
2023-02-18T20:42:25.496Z,23.4
2023-02-18T20:47:44.008Z,23.4
2023-02-18T20:53:02.637Z,23.4
2023-02-18T20:58:21.727Z,23.4
2023-02-18T21:03:40.666Z,23.4
2023-02-18T21:08:59.002Z,23.3
2023-02-18T21:14:16.949Z,23.3
2023-02-18T21:19:38.806Z,23.3
2023-02-18T21:24:57.376Z,23.3
2023-02-18T21:30:16.176Z,23.3
2023-02-18T21:35:34.784Z,23.3
2023-02-18T21:40:53.301Z,23.3
2023-02-18T21:46:11.759Z,23.3
2023-02-18T21:51:29.982Z,23.3
2023-02-18T21:56:48.638Z,23.3
2023-02-18T22:02:07.012Z,23.3
2023-02-18T22:07:25.179Z,23.2
2023-02-18T22:12:43.711Z,23.3
2023-02-18T22:18:01.921Z,23.3
2023-02-18T22:23:20.405Z,23.3
2023-02-18T22:28:38.920Z,23.3
2023-02-18T22:33:57.164Z,23.3
2023-02-18T22:39:15.656Z,23.3
2023-02-18T22:44:18.755Z,23.3
2023-02-18T22:49:37.221Z,23.3
2023-02-18T22:54:55.703Z,23.3
2023-02-18T23:00:14.401Z,23.3
2023-02-18T23:05:32.855Z,23.3
2023-02-18T23:10:51.634Z,23.3
2023-02-18T23:16:10.601Z,23.3
2023-02-18T23:21:28.535Z,23.3
2023-02-18T23:26:47.320Z,23.3
2023-02-18T23:32:05.516Z,23.3
2023-02-18T23:37:23.536Z,23.3
2023-02-18T23:42:42.021Z,23.3
2023-02-18T23:48:00.582Z,23.3
2023-02-18T23:53:19.193Z,23.3
2023-02-18T23:58:37.702Z,23.3
